METAR UND TAF INFORMATION

METAR FOR KFSO
ADDS - METARS form results

(0546 UTC 26 June 2022)
Data provider http://aviationweather.gov/metar/data/
 
METAR text: KFSO 260535Z AUTO 16004KT 10SM CLR 20/19 A3007 RMK AO2 T01950189
Conditions at: KFSO (HIGHGATE , VT, US) observed 0535 UTC 26 June 2022
Temperature: 19.5°C (67°F)
Dewpoint: 18.9°C (66°F) [RH = 96%]
Pressure (altimeter): 30.07 inches Hg (1018.4 mb)
Winds: from the SSE (160 degrees) at 5 MPH (4 knots; 2.1 m/s)
Visibility: 10 or more miles (16+ km)
Ceiling: at least 12,000 feet AGL
Clouds: sky clear below 12,000 feet AGL
Weather: automated observation with no human augmentation;
there may or may not be significant weather present at this time

METAR text: KFSO 260515Z AUTO 11003KT 10SM CLR 20/19 A3007 RMK AO2 T01990192
Conditions at: KFSO (HIGHGATE , VT, US) observed 0515 UTC 26 June 2022
Temperature: 19.9°C (68°F)
Dewpoint: 19.2°C (67°F) [RH = 96%]
Pressure (altimeter): 30.07 inches Hg (1018.4 mb)
Winds: from the ESE (110 degrees) at 3 MPH (3 knots; 1.5 m/s)
Visibility: 10 or more miles (16+ km)
Ceiling: at least 12,000 feet AGL
Clouds: sky clear below 12,000 feet AGL
Weather: automated observation with no human augmentation;
there may or may not be significant weather present at this time

METAR text: KFSO 260455Z AUTO 11004KT 10SM CLR 20/19 A3007 RMK AO2 T01990193 403100147
Conditions at: KFSO (HIGHGATE , VT, US) observed 0455 UTC 26 June 2022
Temperature: 19.9°C (68°F)
Dewpoint: 19.3°C (67°F) [RH = 96%]
Pressure (altimeter): 30.07 inches Hg (1018.4 mb)
Winds: from the ESE (110 degrees) at 5 MPH (4 knots; 2.1 m/s)
Visibility: 10 or more miles (16+ km)
Ceiling: at least 12,000 feet AGL
Clouds: sky clear below 12,000 feet AGL
Weather: automated observation with no human augmentation;
there may or may not be significant weather present at this time

 FLUGHAFENKARTE

 RUNWAY INFORMATION
Runway 01 Runway length 3000 ft Runway width 60 ft
Runway elevation 228 ft Runway displaced threshold 0 ft Runway heading 354
Runway 19 Runway length 3000 ft Runway width 60 ft
Runway elevation 228 ft Runway displaced threshold 0 ft Runway heading 174

 AIRPORT FREQUENCIES
Type A/D Name BURLINGTON Frequency 121.1 MHZ
Type AWOS Name AWOS 3 Frequency 119.025 MHZ
Type RDO Name BURLINGTON Frequency 116.9 MHZ
Type UNIC Name CTAF/UNICO Frequency 122.8 MHZ

 AIRPORT NEAR NAVIGATION AIDS